Terminal Aerodrome Forecast
Issued by NWS Twin Cities, MN

Home | Current Version | Previous Version | Graphics & Text | Print | Product List | Glossary On
Versions: 1 2 3 4 5 6 7 8 9 10 11 12 13 14 15 16 17 18 19 20 21 22 23 24
000
FTUS43 KMPX 202300
TAFMSP
TAF
KMSP 202324Z 2100/2206 10008KT P6SM FEW035 SCT110 BKN250
     FM210600 11008KT P6SM VCSH SCT025 BKN090
     FM210800 12006KT 6SM -SHRA BR VCTS SCT015 BKN035CB
      TEMPO 2108/2111 2SM SHRA BKN025
     FM211100 12006KT 4SM -SHRA BR VCTS BKN020 BKN040CB
      TEMPO 2111/2113 2SM SHRA BKN012
     FM211500 12009KT 6SM BR SCT015 BKN035 OVC100
     FM211800 18009KT P6SM BKN035 BKN150 PROB30 2121/2124 5SM -TSRA
      BKN025CB=

USA.gov is the U.S. government's official web portal to all federal, state and local government web resources and services.